Jalhay, Belgium
Current Conditions -  °F | °C
As of 5:36 PM on Thursday 30 Oct 2014 (Local Time) from EBLB Reporting Station
Broken Clouds Broken Clouds  
Wind Chill: 54°   Ceiling: 13000
Heat Index: 54°   Visibility: 4mi
Dew Point: 52°   Wind: 6mph
Humidity: 94%   Direction: 190°S
Pressure: 30.24"   Gusts: NA
Location:  50.56°N, 5.97°E
Report Text: EBLB 301636Z AUTO 19005KT 7000 BKN130/// 12/11 Q1024 WHT
Loading
Personal Weather Stations






























Interactive Weather Map
Tropical Storm Tracking
New forecast layout! Learn more

10-Day Weather Forecast

Advertisements
Track Severe Weather on mobile